Unser Platzwetter:

(um das Bild zu aktualisieren oder bei unvollständig geladenem Bild den Reload-Button des Browsers drücken)

[Quelle: ADDS]
METAR
ETNN 231020Z 26016KT 9999 SCT350 19/09 Q1019 BLU+BLU+ =
ETNN 231003Z 2311/2320 25012G22KT 9999 NSW FEW050 SCT300 BY ETGL
TAF
ETNN 231003Z 2311/2320 25012G22KT 9999 NSW FEW050 SCT300 BY ETGL =
SR / SS: 05:21 / 17:30 UTC (Vettweiss-Soller 2021-09-23)

Aktuelle Windrichtung in Relation zu unserer Bahn:

 

Aktuelle Dichtehöhe bei uns am Platz: 920 ft.

PPR beachten

50 44 51 N / 06 34 01 E
525 ft
14/32 Gras 360 m
136.090 MHz
02424/901444

Kontakt:

LSG Gertrudenhof e.V.
c/o Franz-Josef Schmidt
An der Gärtnerei 13
52388 Nörvenich
02426/9593651
0175/2660491

in Lokalzeit:
07:20
19:31